createdAt,value
2022-10-28T00:00:23.789Z,998.24
2022-10-28T00:01:23.888Z,998.32
2022-10-28T00:02:23.817Z,998.31
2022-10-28T00:03:23.915Z,998.30
2022-10-28T00:04:23.799Z,998.33
2022-10-28T00:05:23.755Z,998.33
2022-10-28T00:06:23.705Z,998.29
2022-10-28T00:07:23.710Z,998.30
2022-10-28T00:08:23.689Z,998.35
2022-10-28T00:09:23.705Z,998.41
2022-10-28T00:10:23.673Z,998.39
2022-10-28T00:11:23.670Z,998.39
2022-10-28T00:12:23.746Z,998.35
2022-10-28T00:13:23.661Z,998.33
2022-10-28T00:14:23.640Z,998.34
2022-10-28T00:15:23.632Z,998.30
2022-10-28T00:16:23.637Z,998.34
2022-10-28T00:18:23.620Z,998.33
2022-10-28T00:19:23.679Z,998.32
2022-10-28T00:20:23.593Z,998.31
2022-10-28T00:21:23.624Z,998.31
2022-10-28T00:22:23.618Z,998.35
2022-10-28T00:23:23.618Z,998.34
2022-10-28T00:24:23.604Z,998.35
2022-10-28T00:25:23.572Z,998.36
2022-10-28T00:26:23.575Z,998.33
2022-10-28T00:27:23.571Z,998.34
2022-10-28T00:28:23.522Z,998.33
2022-10-28T00:29:23.529Z,998.33
2022-10-28T00:30:23.611Z,998.29
2022-10-28T00:31:23.504Z,998.28
2022-10-28T00:32:23.515Z,998.26
2022-10-28T00:33:23.669Z,998.27
2022-10-28T00:34:23.513Z,998.29
2022-10-28T00:35:23.483Z,998.31
2022-10-28T00:36:23.704Z,998.29
2022-10-28T00:37:23.530Z,998.26
2022-10-28T00:38:23.482Z,998.23
2022-10-28T00:39:23.476Z,998.26
2022-10-28T00:40:23.451Z,998.23
2022-10-28T00:41:23.460Z,998.22
2022-10-28T00:42:24.059Z,998.21
2022-10-28T00:43:23.488Z,998.23
2022-10-28T00:44:23.434Z,998.22
2022-10-28T00:45:23.423Z,998.22
2022-10-28T00:46:23.427Z,998.21
2022-10-28T00:47:23.418Z,998.19
2022-10-28T00:48:23.420Z,998.20
2022-10-28T00:49:23.381Z,998.22
2022-10-28T00:50:23.362Z,998.21
2022-10-28T00:51:23.357Z,998.19
2022-10-28T00:52:23.347Z,998.22
2022-10-28T00:53:23.368Z,998.18
2022-10-28T00:54:23.339Z,998.21
2022-10-28T00:55:23.345Z,998.22
2022-10-28T00:56:23.387Z,998.19
2022-10-28T00:57:23.539Z,998.22
2022-10-28T00:58:23.344Z,998.23
2022-10-28T00:59:23.333Z,998.23
2022-10-28T01:00:23.332Z,998.21
2022-10-28T01:01:23.622Z,998.19
2022-10-28T01:02:23.488Z,998.18
2022-10-28T01:03:23.281Z,998.17
2022-10-28T01:04:23.292Z,998.16
2022-10-28T01:05:23.311Z,998.21
2022-10-28T01:06:23.506Z,998.18
2022-10-28T01:07:23.272Z,998.16
2022-10-28T01:08:23.254Z,998.16
2022-10-28T01:09:23.401Z,998.12
2022-10-28T01:10:23.232Z,998.15
2022-10-28T01:11:23.272Z,998.15
2022-10-28T01:12:23.224Z,998.14
2022-10-28T01:13:23.272Z,998.13
2022-10-28T01:14:23.235Z,998.14
2022-10-28T01:15:23.208Z,998.16
2022-10-28T01:16:23.260Z,998.16
2022-10-28T01:17:23.205Z,998.11
2022-10-28T01:18:23.309Z,998.12
2022-10-28T01:19:23.217Z,998.05
2022-10-28T01:20:23.194Z,998.09
2022-10-28T01:21:23.196Z,998.09
2022-10-28T01:22:23.199Z,998.02
2022-10-28T01:23:23.355Z,998.05
2022-10-28T01:24:23.139Z,998.06
2022-10-28T01:25:23.212Z,998.02
2022-10-28T01:26:23.127Z,998.06
2022-10-28T01:27:23.123Z,998.05
2022-10-28T01:28:23.127Z,998.05
2022-10-28T01:29:23.117Z,998.06
2022-10-28T01:30:23.107Z,998.07
2022-10-28T01:31:23.344Z,998.07
2022-10-28T01:32:23.123Z,998.05
2022-10-28T01:33:23.119Z,998.06
2022-10-28T01:34:23.097Z,998.06
2022-10-28T01:35:23.116Z,998.06
2022-10-28T01:36:23.075Z,998.08
2022-10-28T01:37:23.078Z,998.04
2022-10-28T01:38:23.056Z,998.09
2022-10-28T01:39:23.048Z,998.06
2022-10-28T01:40:23.042Z,998.06
2022-10-28T01:41:23.195Z,998.06
2022-10-28T01:42:23.025Z,998.08
2022-10-28T01:43:23.032Z,998.07
2022-10-28T01:44:23.034Z,998.05
2022-10-28T01:45:23.019Z,998.06
2022-10-28T01:46:23.007Z,998.08
2022-10-28T01:47:23.009Z,998.09
2022-10-28T01:48:22.983Z,998.06
2022-10-28T01:49:23.028Z,998.05
2022-10-28T01:50:22.998Z,998.09
2022-10-28T01:51:23.090Z,998.09
2022-10-28T01:52:22.966Z,998.10
2022-10-28T01:53:22.979Z,998.14
2022-10-28T01:54:22.933Z,998.12
2022-10-28T01:55:22.962Z,998.10
2022-10-28T01:56:22.949Z,998.09
2022-10-28T01:57:22.951Z,998.07
2022-10-28T01:58:22.993Z,998.05
2022-10-28T01:59:22.936Z,998.03
2022-10-28T02:00:22.917Z,998.04
2022-10-28T02:01:23.046Z,998.00
2022-10-28T02:02:23.012Z,998.00
2022-10-28T02:03:22.900Z,997.98
2022-10-28T02:04:22.893Z,998.02
2022-10-28T02:05:22.902Z,997.98
2022-10-28T02:06:22.951Z,997.99
2022-10-28T02:07:22.938Z,997.99
2022-10-28T02:08:22.871Z,997.98
2022-10-28T02:09:22.852Z,997.96
2022-10-28T02:10:22.851Z,997.96
2022-10-28T02:11:22.897Z,997.93
2022-10-28T02:12:22.923Z,997.97
2022-10-28T02:13:23.073Z,997.95
2022-10-28T02:14:23.044Z,997.96
2022-10-28T02:15:22.855Z,997.90
2022-10-28T02:16:22.843Z,997.94
2022-10-28T02:17:22.865Z,997.94
2022-10-28T02:18:22.784Z,997.93
2022-10-28T02:19:22.840Z,997.90
2022-10-28T02:20:22.797Z,997.90
2022-10-28T02:21:22.800Z,997.87
2022-10-28T02:22:22.768Z,997.91
2022-10-28T02:23:22.745Z,997.88
2022-10-28T02:24:22.784Z,997.86
2022-10-28T02:25:22.731Z,997.84
2022-10-28T02:26:22.766Z,997.85
2022-10-28T02:27:22.737Z,997.87
2022-10-28T02:28:22.763Z,997.83
2022-10-28T02:29:22.760Z,997.86
2022-10-28T02:30:22.709Z,997.84
2022-10-28T02:31:22.696Z,997.83
2022-10-28T02:32:22.679Z,997.85
2022-10-28T02:33:22.744Z,997.81
2022-10-28T02:34:22.750Z,997.83
2022-10-28T02:35:22.716Z,997.82
2022-10-28T02:36:22.688Z,997.77
2022-10-28T02:37:22.691Z,997.77
2022-10-28T02:38:22.670Z,997.78
2022-10-28T02:39:22.659Z,997.77
2022-10-28T02:40:22.646Z,997.79
2022-10-28T02:41:22.713Z,997.77
2022-10-28T02:42:22.598Z,997.80
2022-10-28T02:43:22.814Z,997.79
2022-10-28T02:44:22.629Z,997.77
2022-10-28T02:45:22.743Z,997.74
2022-10-28T02:46:22.636Z,997.75
2022-10-28T02:47:22.610Z,997.73
2022-10-28T02:48:22.588Z,997.70
2022-10-28T02:49:22.600Z,997.72
2022-10-28T02:50:22.609Z,997.69
2022-10-28T02:51:22.585Z,997.66
2022-10-28T02:52:22.583Z,997.66
2022-10-28T02:53:22.710Z,997.61
2022-10-28T02:54:22.580Z,997.64
2022-10-28T02:55:22.766Z,997.65
2022-10-28T02:56:22.583Z,997.69
2022-10-28T02:57:22.559Z,997.64
2022-10-28T02:58:22.530Z,997.64
2022-10-28T02:59:22.546Z,997.67
2022-10-28T03:00:22.490Z,997.64
2022-10-28T03:01:22.700Z,997.61
2022-10-28T03:02:22.573Z,997.65
2022-10-28T03:03:22.701Z,997.64
2022-10-28T03:04:22.520Z,997.67
2022-10-28T03:05:22.471Z,997.70
2022-10-28T03:06:22.552Z,997.67
2022-10-28T03:07:22.710Z,997.69
2022-10-28T03:08:22.485Z,997.69
2022-10-28T03:09:22.448Z,997.70
2022-10-28T03:10:22.426Z,997.72
2022-10-28T03:11:22.427Z,997.74
2022-10-28T03:12:22.417Z,997.78
2022-10-28T03:13:22.444Z,997.77
2022-10-28T03:14:22.405Z,997.79
2022-10-28T03:15:22.365Z,997.82
2022-10-28T03:16:22.387Z,997.85
2022-10-28T03:17:22.427Z,997.81
2022-10-28T03:18:22.393Z,997.79
2022-10-28T03:19:22.360Z,997.74
2022-10-28T03:20:22.419Z,997.74
2022-10-28T03:21:22.340Z,997.71
2022-10-28T03:22:22.329Z,997.68
2022-10-28T03:23:22.348Z,997.66
2022-10-28T03:24:22.313Z,997.65
2022-10-28T03:25:22.339Z,997.69
2022-10-28T03:26:22.298Z,997.64
2022-10-28T03:27:22.312Z,997.64
2022-10-28T03:28:22.274Z,997.64
2022-10-28T03:29:22.273Z,997.66
2022-10-28T03:30:22.271Z,997.65
2022-10-28T03:31:22.483Z,997.64
2022-10-28T03:33:22.307Z,997.65
2022-10-28T03:34:22.269Z,997.67
2022-10-28T03:35:22.274Z,997.70
2022-10-28T03:36:22.209Z,997.72
2022-10-28T03:37:22.262Z,997.73
2022-10-28T03:38:22.253Z,997.74
2022-10-28T03:39:22.211Z,997.79
2022-10-28T03:40:22.241Z,997.79
2022-10-28T03:41:22.194Z,997.82
2022-10-28T03:42:22.388Z,997.79
2022-10-28T03:43:22.189Z,997.73
2022-10-28T03:44:22.168Z,997.75
2022-10-28T03:45:22.198Z,997.68
2022-10-28T03:46:22.189Z,997.69
2022-10-28T03:47:22.179Z,997.64
2022-10-28T03:48:22.136Z,997.62
2022-10-28T03:49:22.181Z,997.64
2022-10-28T03:50:22.132Z,997.65
2022-10-28T03:51:22.139Z,997.68
2022-10-28T03:52:22.132Z,997.66
2022-10-28T03:53:22.114Z,997.66
2022-10-28T03:54:22.108Z,997.69
2022-10-28T03:55:22.105Z,997.72
2022-10-28T03:56:22.117Z,997.69
2022-10-28T03:57:22.087Z,997.71
2022-10-28T03:58:22.081Z,997.72
2022-10-28T03:59:22.080Z,997.71
2022-10-28T04:00:22.078Z,997.70
2022-10-28T04:01:22.204Z,997.69
2022-10-28T04:02:22.137Z,997.66
2022-10-28T04:03:22.041Z,997.65
2022-10-28T04:04:22.045Z,997.64
2022-10-28T04:05:22.080Z,997.66
2022-10-28T04:06:22.041Z,997.65
2022-10-28T04:07:22.001Z,997.62
2022-10-28T04:08:22.012Z,997.68
2022-10-28T04:09:21.985Z,997.65
2022-10-28T04:10:21.989Z,997.65
2022-10-28T04:11:21.992Z,997.59
2022-10-28T04:12:21.999Z,997.63
2022-10-28T04:13:21.978Z,997.62
2022-10-28T04:14:21.998Z,997.64
2022-10-28T04:15:21.978Z,997.67
2022-10-28T04:16:21.955Z,997.63
2022-10-28T04:17:21.977Z,997.65
2022-10-28T04:18:21.928Z,997.63
2022-10-28T04:19:21.905Z,997.66
2022-10-28T04:20:22.112Z,997.68
2022-10-28T04:21:21.921Z,997.68
2022-10-28T04:22:21.899Z,997.70
2022-10-28T04:23:21.907Z,997.68
2022-10-28T04:24:21.937Z,997.68
2022-10-28T04:25:22.080Z,997.64
2022-10-28T04:26:21.898Z,997.64
2022-10-28T04:27:21.881Z,997.63
2022-10-28T04:28:21.893Z,997.67
2022-10-28T04:29:21.879Z,997.68
2022-10-28T04:30:21.863Z,997.71
2022-10-28T04:31:21.867Z,997.71
2022-10-28T04:32:21.848Z,997.68
2022-10-28T04:33:21.865Z,997.68
2022-10-28T04:34:21.836Z,997.67
2022-10-28T04:35:21.836Z,997.67
2022-10-28T04:36:21.809Z,997.62
2022-10-28T04:37:21.863Z,997.65
2022-10-28T04:38:21.840Z,997.64
2022-10-28T04:39:21.801Z,997.65
2022-10-28T04:40:21.807Z,997.61
2022-10-28T04:41:21.790Z,997.65
2022-10-28T04:42:21.760Z,997.61
2022-10-28T04:43:21.776Z,997.62
2022-10-28T04:44:21.747Z,997.63
2022-10-28T04:45:21.760Z,997.67
2022-10-28T04:46:21.782Z,997.68
2022-10-28T04:47:21.729Z,997.71
2022-10-28T04:48:21.774Z,997.74
2022-10-28T04:49:21.717Z,997.75
2022-10-28T04:50:21.713Z,997.83
2022-10-28T04:51:21.704Z,997.81
2022-10-28T04:52:21.736Z,997.77
2022-10-28T04:53:21.723Z,997.76
2022-10-28T04:54:21.686Z,997.74
2022-10-28T04:55:21.693Z,997.72
2022-10-28T04:56:21.880Z,997.70
2022-10-28T04:57:21.665Z,997.68
2022-10-28T04:58:21.690Z,997.70
2022-10-28T04:59:21.666Z,997.67
2022-10-28T05:00:21.634Z,997.69
2022-10-28T05:01:21.859Z,997.72
2022-10-28T05:03:21.642Z,997.67
2022-10-28T05:04:21.594Z,997.69
2022-10-28T05:05:21.591Z,997.67
2022-10-28T05:06:21.587Z,997.71
2022-10-28T05:07:23.564Z,997.65
2022-10-28T05:08:21.578Z,997.65
2022-10-28T05:09:21.684Z,997.69
2022-10-28T05:10:21.558Z,997.64
2022-10-28T05:11:21.575Z,997.65
2022-10-28T05:12:21.554Z,997.67
2022-10-28T05:13:21.541Z,997.65
2022-10-28T05:14:21.544Z,997.62
2022-10-28T05:15:21.529Z,997.68
2022-10-28T05:16:21.540Z,997.65
2022-10-28T05:17:21.514Z,997.67
2022-10-28T05:18:21.543Z,997.71
2022-10-28T05:19:21.533Z,997.71
2022-10-28T05:20:21.506Z,997.77
2022-10-28T05:21:21.506Z,997.78
2022-10-28T05:22:21.478Z,997.81
2022-10-28T05:23:21.527Z,997.78
2022-10-28T05:24:21.497Z,997.77
2022-10-28T05:25:21.485Z,997.82
2022-10-28T05:26:21.727Z,997.79
2022-10-28T05:27:21.460Z,997.80
2022-10-28T05:28:21.459Z,997.75
2022-10-28T05:29:21.468Z,997.77
2022-10-28T05:30:21.631Z,997.79
2022-10-28T05:31:21.452Z,997.85
2022-10-28T05:32:21.450Z,997.81
2022-10-28T05:33:21.410Z,997.72
2022-10-28T05:34:21.394Z,997.73
2022-10-28T05:35:21.431Z,997.71
2022-10-28T05:36:21.369Z,997.69
2022-10-28T05:37:21.370Z,997.74
2022-10-28T05:38:21.395Z,997.75
2022-10-28T05:39:21.352Z,997.73
2022-10-28T05:40:21.389Z,997.70
2022-10-28T05:41:23.336Z,997.70
2022-10-28T05:42:21.356Z,997.72
2022-10-28T05:43:21.341Z,997.75
2022-10-28T05:44:21.335Z,997.74
2022-10-28T05:45:21.371Z,997.77
2022-10-28T05:46:21.296Z,997.76
2022-10-28T05:47:21.308Z,997.74
2022-10-28T05:48:21.301Z,997.77
2022-10-28T05:49:21.279Z,997.74
2022-10-28T05:50:21.319Z,997.74
2022-10-28T05:51:21.313Z,997.76
2022-10-28T05:52:21.299Z,997.75
2022-10-28T05:53:21.341Z,997.75
2022-10-28T05:54:21.256Z,997.69
2022-10-28T05:55:21.256Z,997.70
2022-10-28T05:56:21.236Z,997.66
2022-10-28T05:57:21.259Z,997.67
2022-10-28T05:58:21.244Z,997.68
2022-10-28T05:59:21.235Z,997.70
2022-10-28T06:00:21.208Z,997.71
2022-10-28T06:01:21.245Z,997.70
2022-10-28T06:02:21.195Z,997.71
2022-10-28T06:03:21.240Z,997.75
2022-10-28T06:04:21.181Z,997.74
2022-10-28T06:05:21.184Z,997.74
2022-10-28T06:06:21.161Z,997.75
2022-10-28T06:07:21.176Z,997.76
2022-10-28T06:08:21.160Z,997.73
2022-10-28T06:09:21.158Z,997.71
2022-10-28T06:10:21.161Z,997.71
2022-10-28T06:11:19.629Z,997.73
2022-10-28T06:12:19.667Z,997.70
2022-10-28T06:13:19.597Z,997.73
2022-10-28T06:14:19.802Z,997.74
2022-10-28T06:15:19.613Z,997.78
2022-10-28T06:16:19.569Z,997.72
2022-10-28T06:17:19.581Z,997.76
2022-10-28T06:18:19.553Z,997.78
2022-10-28T06:19:19.540Z,997.77
2022-10-28T06:20:19.551Z,997.79
2022-10-28T06:21:19.564Z,997.84
2022-10-28T06:22:19.525Z,997.89
2022-10-28T06:23:19.508Z,997.81
2022-10-28T06:24:19.521Z,997.80
2022-10-28T06:25:19.548Z,997.82
2022-10-28T06:26:19.514Z,997.78
2022-10-28T06:27:19.500Z,997.84
2022-10-28T06:28:19.516Z,997.87
2022-10-28T06:29:19.495Z,997.84
2022-10-28T06:30:19.478Z,997.90
2022-10-28T06:31:19.457Z,997.97
2022-10-28T06:32:19.455Z,997.98
2022-10-28T06:33:19.439Z,997.98
2022-10-28T06:34:19.466Z,998.01
2022-10-28T06:35:19.440Z,998.04
2022-10-28T06:36:19.447Z,998.00
2022-10-28T06:37:19.425Z,997.96
2022-10-28T06:38:19.421Z,997.95
2022-10-28T06:39:19.472Z,998.00
2022-10-28T06:40:19.392Z,998.03
2022-10-28T06:41:19.408Z,998.04
2022-10-28T06:42:19.401Z,998.04
2022-10-28T06:43:19.409Z,998.03
2022-10-28T06:44:19.432Z,998.08
2022-10-28T06:45:19.465Z,998.12
2022-10-28T06:46:19.385Z,998.16
2022-10-28T06:47:20.895Z,998.10
2022-10-28T06:48:20.911Z,998.14
2022-10-28T06:49:20.895Z,998.18
2022-10-28T06:50:20.866Z,998.17
2022-10-28T06:51:20.874Z,998.19
2022-10-28T06:52:20.866Z,998.21
2022-10-28T06:53:20.842Z,998.18
2022-10-28T06:54:20.861Z,998.19
2022-10-28T06:55:20.859Z,998.18
2022-10-28T06:56:20.830Z,998.19
2022-10-28T06:57:21.592Z,998.22
2022-10-28T06:58:20.827Z,998.21
2022-10-28T06:59:20.820Z,998.25
2022-10-28T07:00:21.420Z,998.24
2022-10-28T07:01:20.989Z,998.18
2022-10-28T07:02:20.938Z,998.11
2022-10-28T07:03:20.809Z,998.10
2022-10-28T07:04:20.803Z,998.10
2022-10-28T07:05:20.805Z,998.13
2022-10-28T07:06:20.778Z,998.10
2022-10-28T07:07:20.793Z,998.10
2022-10-28T07:08:20.771Z,998.04
2022-10-28T07:09:20.757Z,998.09
2022-10-28T07:10:20.758Z,998.09
2022-10-28T07:11:20.752Z,998.10
2022-10-28T07:12:20.783Z,998.09
2022-10-28T07:13:20.742Z,998.11
2022-10-28T07:14:20.760Z,998.13
2022-10-28T07:15:20.737Z,998.16
2022-10-28T07:16:20.738Z,998.09
2022-10-28T07:17:20.766Z,998.14
2022-10-28T07:18:20.742Z,998.14
2022-10-28T07:19:22.704Z,998.11
2022-10-28T07:20:20.706Z,998.14
2022-10-28T07:21:20.713Z,998.12
2022-10-28T07:22:25.362Z,998.05
2022-10-28T07:23:20.713Z,998.06
2022-10-28T07:24:20.707Z,998.09
2022-10-28T07:25:20.699Z,998.12
2022-10-28T07:26:20.680Z,998.10
2022-10-28T07:27:20.684Z,998.11
2022-10-28T07:28:20.666Z,998.07
2022-10-28T07:29:20.668Z,998.11
2022-10-28T07:30:20.697Z,998.12
2022-10-28T07:31:20.660Z,998.07
2022-10-28T07:32:20.662Z,998.03
2022-10-28T07:33:20.874Z,998.05
2022-10-28T07:34:25.835Z,998.05
2022-10-28T07:35:21.067Z,998.06
2022-10-28T07:36:20.636Z,998.03
2022-10-28T07:37:20.669Z,998.00
2022-10-28T07:38:20.634Z,997.96
2022-10-28T07:39:20.821Z,997.94
2022-10-28T07:40:20.617Z,997.98
2022-10-28T07:41:20.610Z,997.93
2022-10-28T07:42:20.607Z,997.88
2022-10-28T07:43:20.606Z,997.88
2022-10-28T07:44:20.602Z,997.83
2022-10-28T07:45:20.592Z,997.81
2022-10-28T07:46:20.601Z,997.74
2022-10-28T07:47:20.587Z,997.76
2022-10-28T07:48:20.576Z,997.73
2022-10-28T07:49:20.777Z,997.70
2022-10-28T07:50:20.573Z,997.68
2022-10-28T07:51:20.579Z,997.65
2022-10-28T07:52:20.544Z,997.65
2022-10-28T07:53:22.630Z,997.64
2022-10-28T07:54:20.560Z,997.60
2022-10-28T07:55:20.559Z,997.59
2022-10-28T07:56:20.561Z,997.58
2022-10-28T07:57:20.530Z,997.58
2022-10-28T07:58:20.520Z,997.53
2022-10-28T07:59:25.666Z,997.52
2022-10-28T08:00:20.533Z,997.50
2022-10-28T08:01:20.690Z,997.55
2022-10-28T08:02:20.478Z,997.51
2022-10-28T08:03:20.470Z,997.52
2022-10-28T08:04:20.464Z,997.49
2022-10-28T08:05:20.492Z,997.45
2022-10-28T08:06:20.458Z,997.44
2022-10-28T08:07:20.456Z,997.43
2022-10-28T08:08:20.431Z,997.43
2022-10-28T08:09:20.428Z,997.39
2022-10-28T08:10:20.428Z,997.33
2022-10-28T08:11:20.412Z,997.33
2022-10-28T08:12:20.384Z,997.28
2022-10-28T08:13:20.391Z,997.27
2022-10-28T08:14:20.416Z,997.28
2022-10-28T08:15:20.378Z,997.30
2022-10-28T08:16:20.387Z,997.29
2022-10-28T08:17:20.352Z,997.25
2022-10-28T08:18:20.372Z,997.24
2022-10-28T08:19:20.567Z,997.22
2022-10-28T08:20:20.354Z,997.20
2022-10-28T08:21:20.373Z,997.19
2022-10-28T08:22:20.345Z,997.21
2022-10-28T08:23:20.309Z,997.18
2022-10-28T08:24:20.330Z,997.08
2022-10-28T08:25:20.290Z,997.14
2022-10-28T08:26:20.288Z,997.13
2022-10-28T08:27:20.290Z,997.11
2022-10-28T08:28:20.302Z,997.09
2022-10-28T08:29:20.275Z,997.07
2022-10-28T08:30:20.299Z,997.11
2022-10-28T08:31:20.284Z,997.07
2022-10-28T08:32:20.272Z,997.09
2022-10-28T08:33:20.461Z,997.08
2022-10-28T08:35:20.242Z,996.97
2022-10-28T08:36:20.457Z,996.95
2022-10-28T08:37:20.324Z,996.91
2022-10-28T08:38:20.219Z,996.90
2022-10-28T08:39:20.198Z,996.94
2022-10-28T08:40:20.207Z,996.94
2022-10-28T08:41:20.220Z,996.94
2022-10-28T08:42:20.267Z,996.97
2022-10-28T08:43:30.369Z,996.96
2022-10-28T08:44:20.175Z,997.05
2022-10-28T08:45:20.165Z,996.97
2022-10-28T08:46:20.200Z,996.94
2022-10-28T08:47:20.160Z,997.04
2022-10-28T08:48:20.164Z,997.16
2022-10-28T08:49:20.160Z,997.12
2022-10-28T08:50:20.269Z,996.99
2022-10-28T08:51:20.122Z,997.09
2022-10-28T08:52:20.129Z,997.12
2022-10-28T08:53:20.137Z,997.10
2022-10-28T08:54:20.169Z,997.06
2022-10-28T08:55:20.114Z,997.03
2022-10-28T08:56:20.124Z,997.01
2022-10-28T08:57:20.102Z,997.07
2022-10-28T08:58:20.101Z,997.10
2022-10-28T08:59:20.299Z,997.14
2022-10-28T09:00:20.244Z,997.07
2022-10-28T09:01:20.270Z,997.03
2022-10-28T09:02:20.089Z,997.02
2022-10-28T09:03:20.688Z,996.99
2022-10-28T09:04:20.063Z,997.01
2022-10-28T09:05:20.049Z,997.02
2022-10-28T09:06:20.040Z,996.97
2022-10-28T09:07:20.050Z,996.97
2022-10-28T09:08:20.093Z,997.00
2022-10-28T09:09:20.056Z,996.98
2022-10-28T09:10:20.042Z,996.94
2022-10-28T09:11:24.707Z,997.02
2022-10-28T09:12:20.010Z,997.09
2022-10-28T09:13:20.046Z,997.06
2022-10-28T09:14:20.040Z,997.03
2022-10-28T09:15:20.079Z,997.07
2022-10-28T09:16:20.036Z,997.04
2022-10-28T09:17:20.008Z,996.99
2022-10-28T09:18:20.014Z,997.02
2022-10-28T09:19:20.033Z,997.04
2022-10-28T09:20:20.085Z,997.07
2022-10-28T09:21:19.998Z,997.08
2022-10-28T09:22:21.122Z,997.15
2022-10-28T09:23:20.003Z,997.18
2022-10-28T09:24:19.974Z,997.23
2022-10-28T09:25:20.017Z,997.23
2022-10-28T09:26:19.955Z,997.26
2022-10-28T09:27:19.971Z,997.21
2022-10-28T09:28:20.029Z,997.32
2022-10-28T09:29:19.967Z,997.29
2022-10-28T09:30:20.093Z,997.26
2022-10-28T09:31:19.948Z,997.23
2022-10-28T09:32:19.933Z,997.14
2022-10-28T09:33:20.179Z,997.13
2022-10-28T09:34:19.952Z,997.11
2022-10-28T09:35:19.979Z,997.08
2022-10-28T09:36:19.949Z,997.09
2022-10-28T09:37:19.934Z,997.16
2022-10-28T09:38:19.977Z,997.21
2022-10-28T09:39:23.974Z,997.16
2022-10-28T09:40:19.918Z,997.27
2022-10-28T09:41:19.977Z,997.23
2022-10-28T09:42:20.174Z,997.13
2022-10-28T09:43:19.917Z,997.13
2022-10-28T09:44:19.971Z,997.12
2022-10-28T09:45:19.939Z,997.18
2022-10-28T09:46:19.944Z,997.21
2022-10-28T09:47:19.923Z,997.15
2022-10-28T09:48:19.918Z,997.13
2022-10-28T09:49:19.916Z,997.19
2022-10-28T09:50:19.923Z,997.19
2022-10-28T09:51:19.907Z,997.21
2022-10-28T09:52:19.963Z,997.19
2022-10-28T09:53:19.948Z,997.11
2022-10-28T09:54:19.922Z,997.15
2022-10-28T09:55:19.951Z,997.29
2022-10-28T09:56:19.906Z,997.24
2022-10-28T09:57:19.918Z,997.23
2022-10-28T09:58:19.887Z,997.18
2022-10-28T09:59:19.933Z,997.16
2022-10-28T10:00:19.924Z,997.16
2022-10-28T10:01:19.967Z,997.08
2022-10-28T10:02:19.955Z,997.08
2022-10-28T10:03:19.897Z,997.07
2022-10-28T10:04:19.896Z,997.07
2022-10-28T10:05:19.895Z,997.03
2022-10-28T10:06:19.882Z,997.00
2022-10-28T10:07:19.959Z,997.05
2022-10-28T10:08:19.884Z,997.04
2022-10-28T10:09:19.884Z,997.02
2022-10-28T10:10:19.900Z,997.01
2022-10-28T10:11:19.895Z,997.00
2022-10-28T10:12:19.878Z,997.00
2022-10-28T10:13:19.899Z,996.97
2022-10-28T10:14:19.894Z,996.99
2022-10-28T10:15:19.864Z,996.97
2022-10-28T10:16:19.887Z,996.96
2022-10-28T10:17:19.880Z,996.96
2022-10-28T10:18:19.925Z,996.94
2022-10-28T10:19:19.902Z,996.91
2022-10-28T10:20:19.866Z,996.98
2022-10-28T10:21:20.065Z,997.00
2022-10-28T10:22:20.068Z,997.00
2022-10-28T10:23:19.900Z,996.97
2022-10-28T10:24:19.858Z,996.97
2022-10-28T10:25:19.859Z,996.97
2022-10-28T10:26:19.861Z,996.92
2022-10-28T10:27:19.862Z,996.95
2022-10-28T10:28:19.864Z,996.91
2022-10-28T10:29:19.896Z,996.92
2022-10-28T10:30:19.858Z,996.90
2022-10-28T10:31:19.858Z,996.93
2022-10-28T10:32:19.866Z,996.92
2022-10-28T10:33:19.833Z,996.90
2022-10-28T10:34:19.836Z,996.87
2022-10-28T10:35:19.822Z,996.86
2022-10-28T10:36:19.832Z,996.82
2022-10-28T10:37:19.813Z,996.82
2022-10-28T10:38:19.831Z,996.80
2022-10-28T10:39:19.813Z,996.83
2022-10-28T10:40:19.839Z,996.83
2022-10-28T10:41:19.835Z,996.73
2022-10-28T10:42:19.801Z,996.80
2022-10-28T10:43:19.788Z,996.81
2022-10-28T10:44:19.816Z,996.78
2022-10-28T10:45:19.818Z,996.80
2022-10-28T10:46:19.794Z,996.76
2022-10-28T10:47:19.788Z,996.78
2022-10-28T10:48:19.810Z,996.78
2022-10-28T10:49:19.788Z,996.76
2022-10-28T10:50:19.819Z,996.72
2022-10-28T10:51:19.784Z,996.69
2022-10-28T10:52:19.971Z,996.65
2022-10-28T10:53:19.774Z,996.66
2022-10-28T10:54:19.754Z,996.65
2022-10-28T10:55:19.980Z,996.65
2022-10-28T10:56:19.777Z,996.66
2022-10-28T10:57:19.758Z,996.70
2022-10-28T10:58:19.779Z,996.69
2022-10-28T10:59:19.764Z,996.67
2022-10-28T11:00:19.748Z,996.67
2022-10-28T11:01:19.910Z,996.69
2022-10-28T11:02:19.992Z,996.72
2022-10-28T11:03:19.739Z,996.69
2022-10-28T11:04:19.733Z,996.70
2022-10-28T11:05:21.695Z,996.68
2022-10-28T11:06:23.564Z,996.64
2022-10-28T11:07:19.718Z,996.62
2022-10-28T11:08:19.758Z,996.63
2022-10-28T11:09:19.723Z,996.61
2022-10-28T11:10:19.711Z,996.58
2022-10-28T11:11:19.720Z,996.57
2022-10-28T11:12:19.702Z,996.63
2022-10-28T11:13:19.687Z,996.59
2022-10-28T11:14:19.763Z,996.59
2022-10-28T11:15:19.700Z,996.59
2022-10-28T11:16:19.710Z,996.58
2022-10-28T11:17:19.750Z,996.56
2022-10-28T11:18:19.707Z,996.55
2022-10-28T11:19:19.699Z,996.58
2022-10-28T11:20:19.698Z,996.56
2022-10-28T11:21:19.753Z,996.51
2022-10-28T11:22:19.690Z,996.50
2022-10-28T11:23:19.689Z,996.49
2022-10-28T11:24:19.674Z,996.53
2022-10-28T11:25:19.696Z,996.48
2022-10-28T11:26:19.719Z,996.51
2022-10-28T11:27:19.656Z,996.53
2022-10-28T11:28:19.657Z,996.54
2022-10-28T11:29:19.652Z,996.53
2022-10-28T11:30:19.679Z,996.54
2022-10-28T11:31:19.671Z,996.51
2022-10-28T11:32:19.660Z,996.53
2022-10-28T11:33:33.186Z,996.47
2022-10-28T11:34:19.672Z,996.55
2022-10-28T11:35:19.640Z,996.52
2022-10-28T11:36:19.670Z,996.53
2022-10-28T11:37:19.630Z,996.56
2022-10-28T11:38:19.672Z,996.57
2022-10-28T11:39:19.654Z,996.56
2022-10-28T11:40:19.853Z,996.57
2022-10-28T11:41:19.599Z,996.56
2022-10-28T11:42:19.624Z,996.51
2022-10-28T11:43:19.627Z,996.54
2022-10-28T11:44:19.617Z,996.61
2022-10-28T11:45:19.800Z,996.61
2022-10-28T11:46:19.595Z,996.60
2022-10-28T11:47:19.611Z,996.56
2022-10-28T11:48:19.590Z,996.59
2022-10-28T11:49:19.613Z,996.66
2022-10-28T11:50:19.602Z,996.68
2022-10-28T11:51:19.591Z,996.72
2022-10-28T11:52:19.561Z,996.72
2022-10-28T11:53:19.807Z,996.70
2022-10-28T11:54:19.561Z,996.76
2022-10-28T11:55:19.600Z,996.74
2022-10-28T11:56:19.587Z,996.78
2022-10-28T11:57:19.773Z,996.75
2022-10-28T11:58:19.603Z,996.73
2022-10-28T11:59:19.545Z,996.76
2022-10-28T12:00:19.555Z,996.75
2022-10-28T12:01:19.643Z,996.77
2022-10-28T12:02:19.777Z,996.79
2022-10-28T12:03:19.826Z,996.76
2022-10-28T12:04:19.737Z,996.77
2022-10-28T12:05:19.549Z,996.75
2022-10-28T12:06:20.166Z,996.75
2022-10-28T12:07:19.548Z,996.72
2022-10-28T12:08:19.542Z,996.72
2022-10-28T12:09:19.560Z,996.70
2022-10-28T12:10:19.547Z,996.70
2022-10-28T12:11:19.502Z,996.64
2022-10-28T12:12:19.725Z,996.62
2022-10-28T12:13:19.531Z,996.60
2022-10-28T12:14:19.533Z,996.58
2022-10-28T12:15:19.513Z,996.60
2022-10-28T12:16:19.523Z,996.55
2022-10-28T12:17:19.497Z,996.53
2022-10-28T12:18:19.471Z,996.49
2022-10-28T12:19:19.495Z,996.53
2022-10-28T12:20:19.482Z,996.48
2022-10-28T12:21:19.647Z,996.48
2022-10-28T12:22:19.487Z,996.45
2022-10-28T12:23:19.678Z,996.45
2022-10-28T12:24:19.452Z,996.43
2022-10-28T12:25:19.486Z,996.42
2022-10-28T12:26:19.457Z,996.45
2022-10-28T12:27:19.437Z,996.44
2022-10-28T12:28:19.435Z,996.44
2022-10-28T12:29:19.436Z,996.42
2022-10-28T12:30:19.431Z,996.42
2022-10-28T12:31:19.435Z,996.39
2022-10-28T12:32:19.425Z,996.37